EDDN

Nuremberg Airport

Nuremberg, Germany
METAR EDDN 160520Z 11006KT CAVOK M05/M07 Q1014 NOSIG
Observed Flight Rules
Dec-16 @ 05:20 UTC (32 minutes ago) Visual Flight Rules
Wind Visibility Clouds
110° at 6 knots 10,000+ meters
  • Clear skies
Temperatures Readings
Current -5°C / 23°F
Dewpoint -7°C / 19°F
Humidity 86%
Altimeter 29.94" Hg
Pressure 1014 hPa
Elevation 312
METAR EDDN 160520Z 11006KT CAVOK M05/M07 Q1014 NOSIG
Observed Flight Rules
Dec-16 @ 05:20 UTC
(32 minutes ago)
VFR
Wind Visibility
110° at 6 knots 10,000+ meters
Clouds
  • Clear skies
Temperature Dewpoint
-5°C / 23°F -7°C / 19°F
Humidity Altimeter Pressure
86% 29.94" Hg 1014 hPa